Time;durP1;ratioP1;P1;durP2;ratioP2;P2;SDS_P1;SDS_P2;PMS_P1;PMS_P2;Temp;Humidity;BMP_temperature;BMP_pressure;BME280_temperature;BME280_humidity;BME280_pressure;Samples;Min_cycle;Max_cycle;Signal;HPM_P1;HPM_P2
2021/05/03 00:03:08;;;;;;;8.30;4.17;;;;;;;11.83;81.42;99397.86;1768479;81;21307;-78
2021/05/03 00:06:13;;;;;;;11.68;4.90;;;;;;;11.86;81.51;99408.95;1768377;81;21295;-78
2021/05/03 00:09:20;;;;;;;10.88;4.12;;;;;;;11.85;81.63;99414.92;1766955;81;21390;-78
2021/05/03 00:12:27;;;;;;;9.58;4.00;;;;;;;11.87;81.68;99414.21;1766818;81;21236;-78
2021/05/03 00:15:33;;;;;;;15.55;4.70;;;;;;;11.86;81.71;99392.50;1766853;80;21241;-78
2021/05/03 00:18:39;;;;;;;13.80;4.72;;;;;;;11.80;81.87;99393.28;1768402;81;21823;-79
2021/05/03 00:21:47;;;;;;;13.40;3.75;;;;;;;11.75;82.11;99404.85;1766658;81;21830;-78
2021/05/03 00:24:53;;;;;;;12.75;4.00;;;;;;;11.74;82.37;99412.76;1768681;79;21339;-79
2021/05/03 00:27:59;;;;;;;13.45;3.72;;;;;;;11.72;82.56;99400.65;1768109;81;21311;-78
2021/05/03 00:31:06;;;;;;;14.23;4.15;;;;;;;11.72;82.70;99396.54;1768139;81;21303;-78
2021/05/03 00:34:13;;;;;;;15.18;4.70;;;;;;;11.68;82.89;99393.05;1768105;81;21217;-79
2021/05/03 00:37:18;;;;;;;14.63;4.95;;;;;;;11.65;83.10;99400.30;1767533;81;21343;-78
2021/05/03 00:40:24;;;;;;;10.72;4.12;;;;;;;11.65;83.27;99404.41;1767822;81;21323;-78
2021/05/03 00:43:29;;;;;;;22.02;4.62;;;;;;;11.64;83.45;99406.30;1766885;81;21236;-78
2021/05/03 00:46:38;;;;;;;10.93;3.90;;;;;;;11.62;83.56;99418.50;1766955;81;21299;-78
2021/05/03 00:49:45;;;;;;;21.68;4.53;;;;;;;11.59;83.73;99425.24;1768388;81;21304;-78
2021/05/03 00:52:51;;;;;;;12.45;4.65;;;;;;;11.58;83.97;99435.05;1768405;81;21296;-78
2021/05/03 00:55:56;;;;;;;13.83;4.40;;;;;;;11.58;84.17;99440.52;1767095;81;21379;-79
2021/05/03 00:59:02;;;;;;;18.35;4.37;;;;;;;11.59;84.36;99444.95;1768184;81;21169;-78
2021/05/03 01:02:07;;;;;;;18.00;6.10;;;;;;;11.58;84.53;99440.52;1768083;81;21162;-78
2021/05/03 01:05:13;;;;;;;15.88;4.97;;;;;;;11.58;84.75;99433.67;1767248;81;21741;-78
2021/05/03 01:08:20;;;;;;;13.93;4.72;;;;;;;11.58;84.86;99429.57;1766624;81;21213;-78
2021/05/03 01:11:25;;;;;;;13.43;4.40;;;;;;;11.56;84.98;99418.80;1767536;81;21221;-78
2021/05/03 01:14:32;;;;;;;16.00;5.10;;;;;;;11.55;85.15;99423.12;1766929;81;21831;-79
2021/05/03 01:17:43;;;;;;;12.93;4.35;;;;;;;11.51;85.30;99416.67;1766933;81;21193;-78
2021/05/03 01:20:47;;;;;;;21.57;5.62;;;;;;;11.48;85.45;99415.73;1768310;81;21197;-78
2021/05/03 01:23:52;;;;;;;12.40;4.50;;;;;;;11.43;85.65;99417.36;1768297;81;21525;-78
2021/05/03 01:26:59;;;;;;;14.53;4.70;;;;;;;11.38;85.87;99400.17;1768248;79;21227;-78
2021/05/03 01:30:05;;;;;;;15.70;4.37;;;;;;;11.31;86.15;99408.89;1768618;81;21277;-79
2021/05/03 01:33:11;;;;;;;14.73;4.33;;;;;;;11.29;86.44;99424.66;1766937;81;21300;-78
2021/05/03 01:36:17;;;;;;;13.38;4.42;;;;;;;11.24;86.67;99423.93;1766947;81;21383;-79
2021/05/03 01:39:24;;;;;;;15.13;4.53;;;;;;;11.20;86.90;99430.01;1768284;81;21181;-78
2021/05/03 01:42:30;;;;;;;15.20;4.75;;;;;;;11.17;87.09;99418.09;1767062;81;21205;-78
2021/05/03 01:45:34;;;;;;;12.85;4.10;;;;;;;11.14;87.19;99410.27;1766879;81;21332;-78
2021/05/03 01:48:39;;;;;;;13.45;4.62;;;;;;;11.08;87.42;99412.45;1768647;81;21296;-79
2021/05/03 01:51:48;;;;;;;11.53;4.97;;;;;;;11.04;87.75;99418.00;1768521;81;21185;-78
2021/05/03 01:54:54;;;;;;;19.80;5.05;;;;;;;10.99;88.12;99418.60;1768281;81;21169;-78
2021/05/03 01:58:00;;;;;;;14.85;5.30;;;;;;;10.97;88.58;99417.45;1768708;81;21931;-79
2021/05/03 02:01:06;;;;;;;16.23;4.55;;;;;;;10.99;88.83;99418.08;1768401;81;21312;-78
2021/05/03 02:04:14;;;;;;;11.22;5.47;;;;;;;11.05;88.98;99419.69;1768299;81;21292;-78
2021/05/03 02:07:23;;;;;;;13.70;5.55;;;;;;;11.09;88.86;99429.19;1768323;81;21339;-78
2021/05/03 02:10:29;;;;;;;18.75;6.17;;;;;;;11.09;88.57;99438.23;1768119;81;21831;-78
2021/05/03 02:13:37;;;;;;;18.12;5.22;;;;;;;11.06;88.50;99432.34;1768358;81;21221;-78
2021/05/03 02:16:43;;;;;;;11.28;5.30;;;;;;;11.06;88.43;99446.03;1767450;81;21855;-78
2021/05/03 02:19:50;;;;;;;18.40;5.72;;;;;;;11.04;88.63;99437.16;1766852;81;21359;-78
2021/05/03 02:22:56;;;;;;;17.82;5.37;;;;;;;11.07;88.79;99431.29;1766899;81;21296;-78
2021/05/03 02:26:02;;;;;;;14.40;4.62;;;;;;;11.04;88.72;99431.16;1767884;81;21879;-78
2021/05/03 02:29:13;;;;;;;15.25;5.47;;;;;;;10.99;88.79;99430.91;1768551;79;21638;-78
2021/05/03 02:32:19;;;;;;;25.10;4.92;;;;;;;11.00;89.22;99434.81;1768358;81;21299;-78
2021/05/03 02:35:28;;;;;;;19.80;6.25;;;;;;;11.00;89.43;99434.81;1768271;81;21300;-78
2021/05/03 02:38:34;;;;;;;16.82;5.30;;;;;;;11.03;89.49;99432.73;1768336;81;21307;-78
2021/05/03 02:41:40;;;;;;;10.35;5.12;;;;;;;11.07;89.63;99431.29;1768368;81;21352;-78
2021/05/03 02:44:46;;;;;;;10.05;4.67;;;;;;;11.13;89.76;99422.27;1768432;81;21181;-78
2021/05/03 02:47:53;;;;;;;16.95;5.37;;;;;;;11.18;89.92;99417.03;1768416;81;21870;-78
2021/05/03 02:50:59;;;;;;;14.40;4.65;;;;;;;11.25;89.97;99423.41;1768512;81;21228;-78
2021/05/03 02:54:06;;;;;;;16.57;5.17;;;;;;;11.29;90.10;99421.92;1768167;81;21181;-79
2021/05/03 02:57:12;;;;;;;17.00;5.25;;;;;;;11.37;90.52;99413.55;1767089;81;21414;-78
2021/05/03 03:00:21;;;;;;;14.00;5.37;;;;;;;11.47;90.81;99407.70;1766784;81;21871;-78
2021/05/03 03:03:26;;;;;;;12.75;5.10;;;;;;;11.57;90.87;99408.69;1768632;81;21329;-79
2021/05/03 03:06:32;;;;;;;23.70;5.28;;;;;;;11.66;90.79;99402.81;1766996;81;21225;-78
2021/05/03 03:09:37;;;;;;;14.35;4.67;;;;;;;11.75;90.64;99404.33;1767097;81;21300;-78
2021/05/03 03:12:44;;;;;;;12.37;5.83;;;;;;;11.82;90.46;99408.50;1768002;81;21324;-78
2021/05/03 03:15:50;;;;;;;10.78;4.83;;;;;;;11.93;90.29;99407.05;1768242;81;21296;-78
2021/05/03 03:18:56;;;;;;;11.57;4.80;;;;;;;12.02;89.97;99409.39;1768486;81;21173;-78
2021/05/03 03:22:01;;;;;;;12.50;4.92;;;;;;;12.13;89.59;99409.83;1766988;81;21292;-79
2021/05/03 03:25:08;;;;;;;11.55;5.17;;;;;;;12.19;89.22;99409.02;1767082;81;21328;-79
2021/05/03 03:28:14;;;;;;;11.80;4.65;;;;;;;12.26;88.92;99418.08;1768827;79;21783;-79
2021/05/03 03:31:20;;;;;;;17.15;4.72;;;;;;;12.31;88.65;99415.55;1768397;81;21177;-78
2021/05/03 03:34:26;;;;;;;23.30;5.47;;;;;;;12.40;88.38;99420.31;1766962;81;21177;-78
2021/05/03 03:37:32;;;;;;;18.98;5.90;;;;;;;12.47;88.25;99426.12;1766169;81;21363;-78
2021/05/03 03:40:39;;;;;;;18.30;4.90;;;;;;;12.56;88.10;99415.77;1767272;81;21295;-79
2021/05/03 03:43:45;;;;;;;11.35;4.90;;;;;;;12.67;87.93;99415.69;1767671;81;21958;-78
2021/05/03 03:46:50;;;;;;;17.57;5.20;;;;;;;12.78;87.74;99421.89;1768306;81;21222;-79
2021/05/03 03:49:56;;;;;;;16.95;4.85;;;;;;;12.91;87.44;99434.23;1768256;81;21296;-79
2021/05/03 03:53:02;;;;;;;18.77;5.05;;;;;;;12.99;87.18;99424.42;1766941;81;21846;-78
2021/05/03 03:56:11;;;;;;;16.55;5.10;;;;;;;13.05;86.81;99424.08;1767088;81;21197;-79
2021/05/03 03:59:17;;;;;;;15.25;4.92;;;;;;;13.08;86.57;99413.19;1767475;81;21332;-79
2021/05/03 04:02:24;;;;;;;16.27;5.65;;;;;;;13.08;86.36;99424.17;1768437;81;21351;-79
2021/05/03 04:12:13;;;;;;;11.15;5.80;;;;;;;13.15;86.50;99412.66;1766837;80;21197;-79
2021/05/03 04:25:11;;;;;;;15.40;4.72;;;;;;;13.48;86.44;99427.17;1768400;81;21241;-79
2021/05/03 04:28:15;;;;;;;11.80;4.67;;;;;;;13.73;86.29;99418.19;1767672;81;21335;-79
2021/05/03 04:31:21;;;;;;;12.93;5.37;;;;;;;13.99;85.60;99417.22;1797148;79;21327;-79
2021/05/03 04:34:28;;;;;;;12.20;4.67;;;;;;;14.23;84.51;99413.68;1801475;79;21803;-79
2021/05/03 04:37:34;;;;;;;11.97;4.58;;;;;;;14.40;83.13;99415.38;1801485;79;21323;-80
2021/05/03 04:40:43;;;;;;;13.15;5.42;;;;;;;14.56;82.76;99412.63;1801522;79;21814;-79
2021/05/03 04:43:46;;;;;;;14.07;5.22;;;;;;;14.81;82.00;99411.24;1801399;79;21169;-79
2021/05/03 04:46:54;;;;;;;17.37;4.80;;;;;;;15.04;80.97;99411.98;1802490;79;21877;-79
2021/05/03 04:49:59;;;;;;;16.37;4.47;;;;;;;15.28;80.17;99414.37;1802433;79;21342;-79
2021/05/03 04:53:04;;;;;;;12.88;4.90;;;;;;;15.36;78.24;99416.00;1802859;79;21193;-79
2021/05/03 04:56:11;;;;;;;11.18;4.90;;;;;;;15.32;77.10;99407.34;1802877;79;21823;-79
2021/05/03 04:59:16;;;;;;;17.10;5.00;;;;;;;15.24;77.55;99399.37;1802431;79;21224;-79
2021/05/03 05:02:22;;;;;;;16.37;4.75;;;;;;;15.22;77.91;99397.39;1803036;79;21232;-79
2021/05/03 05:05:30;;;;;;;12.78;4.30;;;;;;;15.28;77.83;99404.73;1802999;79;21850;-79
2021/05/03 05:08:36;;;;;;;15.95;5.03;;;;;;;15.47;77.93;99400.06;1802459;79;21533;-79
2021/05/03 05:11:42;;;;;;;13.00;5.30;;;;;;;15.67;77.89;99402.63;1803042;79;21283;-79
2021/05/03 05:14:46;;;;;;;10.30;5.05;;;;;;;15.82;76.89;99416.85;1802747;79;21355;-79
2021/05/03 05:17:55;;;;;;;13.53;4.45;;;;;;;15.93;76.87;99417.97;1803048;79;21780;-79
2021/05/03 05:21:01;;;;;;;26.82;5.58;;;;;;;16.00;75.42;99411.84;1803138;79;21497;-79
2021/05/03 05:24:07;;;;;;;11.97;4.12;;;;;;;15.96;74.78;99417.52;1802692;79;21323;-79
2021/05/03 05:27:13;;;;;;;13.45;4.83;;;;;;;15.94;74.76;99401.19;1802672;79;21354;-79
2021/05/03 05:30:18;;;;;;;13.45;4.97;;;;;;;15.90;74.52;99385.34;1801968;79;21794;-79
2021/05/03 05:33:24;;;;;;;11.85;5.30;;;;;;;15.81;74.42;99376.58;1801103;79;21245;-79
2021/05/03 05:36:30;;;;;;;13.75;4.87;;;;;;;15.71;74.65;99372.12;1802232;79;21326;-79
2021/05/03 05:39:36;;;;;;;9.85;4.47;;;;;;;15.64;75.23;99381.03;1801930;79;21299;-79
2021/05/03 05:42:42;;;;;;;15.98;4.78;;;;;;;15.58;75.60;99375.89;1803020;79;21280;-79
2021/05/03 05:45:50;;;;;;;17.15;5.35;;;;;;;15.52;75.61;99374.03;1802109;79;21819;-79
2021/05/03 05:48:58;;;;;;;16.35;5.30;;;;;;;15.51;75.92;99381.46;1802656;79;21779;-79
2021/05/03 05:52:03;;;;;;;16.42;4.87;;;;;;;15.56;76.11;99385.74;1802785;79;21228;-79
2021/05/03 05:55:09;;;;;;;16.60;5.55;;;;;;;15.67;75.77;99395.75;1801435;79;21903;-79
2021/05/03 05:58:14;;;;;;;13.30;4.67;;;;;;;15.73;75.71;99396.19;1801479;79;21339;-79
2021/05/03 06:01:22;;;;;;;14.00;5.45;;;;;;;15.81;75.69;99389.81;1802087;79;21212;-79
2021/05/03 06:04:27;;;;;;;17.40;4.53;;;;;;;15.87;75.64;99382.52;1801798;79;21193;-79
2021/05/03 06:07:34;;;;;;;14.05;5.40;;;;;;;15.90;75.82;99375.14;1802954;79;21332;-79
2021/05/03 06:10:40;;;;;;;21.70;4.78;;;;;;;15.94;76.00;99379.12;1801627;79;21687;-79
2021/05/03 06:13:47;;;;;;;24.18;5.78;;;;;;;16.04;76.29;99378.05;1803025;79;21303;-79
2021/05/03 06:16:53;;;;;;;20.55;4.83;;;;;;;16.20;76.26;99382.59;1801800;79;21331;-79
2021/05/03 06:19:59;;;;;;;16.12;4.62;;;;;;;16.34;75.59;99372.48;1802072;79;21288;-79
2021/05/03 06:23:13;;;;;;;13.65;5.00;;;;;;;16.43;74.95;99358.34;1803063;79;21303;-79
2021/05/03 06:26:19;;;;;;;11.35;4.25;;;;;;;16.56;74.56;99361.73;1801453;79;22179;-79
2021/05/03 06:29:29;;;;;;;17.50;5.50;;;;;;;16.78;74.39;99383.25;1802834;79;21339;-79
2021/05/03 06:32:35;;;;;;;13.75;4.87;;;;;;;17.14;74.10;99402.06;1800141;79;21315;-79
2021/05/03 06:35:41;;;;;;;19.00;5.55;;;;;;;17.47;73.28;99404.19;1802861;79;21169;-79
2021/05/03 06:38:47;;;;;;;18.52;4.92;;;;;;;17.73;72.37;99396.73;1802770;79;21283;-79
2021/05/03 06:41:53;;;;;;;15.20;5.72;;;;;;;17.94;70.57;99382.80;1800970;79;21300;-79
2021/05/03 06:44:58;;;;;;;13.53;4.60;;;;;;;17.97;68.96;99389.19;1801074;79;21346;-79
2021/05/03 06:48:04;;;;;;;13.25;4.85;;;;;;;17.83;68.41;99441.23;1802802;79;21225;-79
2021/05/03 06:51:08;;;;;;;20.52;5.97;;;;;;;17.58;69.12;99455.30;1801534;79;21319;-79
2021/05/03 06:54:14;;;;;;;19.85;5.22;;;;;;;17.28;69.70;99453.23;1802768;79;21775;-79
2021/05/03 06:57:19;;;;;;;17.05;5.00;;;;;;;17.10;70.86;99458.34;1802828;79;21288;-79
2021/05/03 07:00:25;;;;;;;18.85;5.47;;;;;;;16.90;71.44;99455.09;1802246;79;21280;-79
2021/05/03 07:03:30;;;;;;;23.65;5.67;;;;;;;16.68;71.08;99447.86;1802921;79;21280;-79
2021/05/03 07:06:35;;;;;;;12.68;5.45;;;;;;;16.54;72.02;99433.42;1802862;79;21338;-79
2021/05/03 07:09:34;;;;;;;16.25;5.40;;;;;;;16.50;72.89;99422.55;1802789;79;21351;-79
2021/05/03 07:12:48;;;;;;;21.82;5.90;;;;;;;16.46;72.90;99427.69;1802917;79;21161;-79
2021/05/03 07:15:49;;;;;;;20.00;5.67;;;;;;;16.43;73.04;99417.14;1803183;79;21779;-79
2021/05/03 07:18:54;;;;;;;19.20;5.78;;;;;;;16.41;72.67;99421.20;1802838;79;21995;-79
2021/05/03 07:22:01;;;;;;;16.80;5.67;;;;;;;16.40;72.84;99414.84;1803070;79;21597;-79
2021/05/03 07:25:10;;;;;;;15.95;5.90;;;;;;;16.46;73.35;99401.47;1801459;79;21711;-79
2021/05/03 07:28:15;;;;;;;16.27;5.05;;;;;;;16.54;73.85;99407.20;1803459;79;21729;-79
2021/05/03 07:31:21;;;;;;;26.70;6.05;;;;;;;16.64;73.95;99407.99;1801974;79;21311;-79
2021/05/03 07:34:27;;;;;;;18.25;5.55;;;;;;;16.69;73.50;99412.27;1806648;79;21862;-79
2021/05/03 07:37:32;;;;;;;17.02;5.70;;;;;;;16.79;73.81;99427.73;1810352;79;21830;-79
2021/05/03 07:40:38;;;;;;;16.65;5.58;;;;;;;16.95;73.86;99429.80;1811130;79;21280;-79
2021/05/03 07:43:45;;;;;;;17.40;6.05;;;;;;;17.14;74.12;99436.60;1811543;79;21291;-79
2021/05/03 07:46:49;;;;;;;18.07;5.30;;;;;;;17.34;73.25;99427.39;1811436;79;21288;-79
2021/05/03 07:49:55;;;;;;;22.27;6.10;;;;;;;17.59;72.75;99426.55;1811510;79;21184;-79
2021/05/03 07:53:02;;;;;;;14.60;6.12;;;;;;;17.86;71.93;99419.97;1811303;79;21296;-79
2021/05/03 07:56:08;;;;;;;20.37;6.25;;;;;;;18.18;71.20;99406.20;1811536;79;21954;-79
2021/05/03 07:59:13;;;;;;;19.67;5.53;;;;;;;18.47;70.67;99407.84;1811409;79;21871;-79
2021/05/03 08:02:18;;;;;;;16.90;5.95;;;;;;;18.87;70.68;99390.28;1810079;79;21215;-79
2021/05/03 08:05:25;;;;;;;16.97;5.62;;;;;;;19.33;69.42;99389.02;1811570;79;21803;-79
2021/05/03 08:08:30;;;;;;;17.75;5.83;;;;;;;19.75;68.13;99382.10;1811501;79;21840;-79
2021/05/03 08:11:43;;;;;;;19.42;5.50;;;;;;;20.09;66.69;99382.24;1810734;79;21366;-80
2021/05/03 08:14:44;;;;;;;21.62;5.28;;;;;;;20.33;66.07;99386.93;1811554;79;21181;-80
2021/05/03 08:17:50;;;;;;;18.52;5.92;;;;;;;20.51;65.04;99389.88;1811229;79;21873;-79
2021/05/03 08:20:57;;;;;;;15.58;5.75;;;;;;;20.61;64.89;99387.23;1811291;79;21811;-79
2021/05/03 08:24:02;;;;;;;18.73;6.10;;;;;;;20.70;64.74;99368.66;1811554;79;21739;-80
2021/05/03 08:27:10;;;;;;;18.37;5.33;;;;;;;20.78;64.45;99366.78;1811499;79;21201;-80
2021/05/03 08:30:16;;;;;;;21.70;6.45;;;;;;;20.79;63.40;99358.73;1811568;79;21173;-80
2021/05/03 08:33:22;;;;;;;17.45;5.30;;;;;;;20.79;63.60;99362.34;1810511;79;21315;-80
2021/05/03 08:36:28;;;;;;;19.92;6.08;;;;;;;20.77;63.43;99363.73;1809870;79;21216;-80
2021/05/03 08:39:34;;;;;;;24.85;6.62;;;;;;;20.80;64.13;99352.92;1811541;79;21173;-80
2021/05/03 08:42:40;;;;;;;19.73;5.85;;;;;;;20.95;64.70;99366.09;1810131;79;21339;-80
2021/05/03 08:45:49;;;;;;;21.50;6.17;;;;;;;21.08;63.63;99360.63;1811525;79;21302;-80
2021/05/03 08:49:01;;;;;;;23.02;5.92;;;;;;;21.09;63.13;99360.91;1810767;79;21760;-80
2021/05/03 08:55:27;;;;;;;38.65;5.75;;;;;;;21.31;63.48;99349.08;1711165;84;21338;-80
2021/05/03 08:58:33;;;;;;;21.52;5.53;;;;;;;21.60;63.42;99341.17;1809844;79;21188;-80
2021/05/03 09:01:38;;;;;;;19.65;6.05;;;;;;;21.86;62.74;99332.91;1811233;79;21180;-80
2021/05/03 09:04:44;;;;;;;33.65;5.78;;;;;;;22.06;62.01;99337.68;1810180;79;21923;-80
2021/05/03 09:07:59;;;;;;;13.62;5.08;;;;;;;22.15;60.62;99329.09;1811556;79;21164;-80
2021/05/03 09:11:06;;;;;;;18.98;5.62;;;;;;;22.28;61.23;99316.03;1811504;79;21192;-80
2021/05/03 09:14:18;;;;;;;22.10;7.75;;;;;;;22.47;61.63;99314.09;1811506;79;21296;-80
2021/05/03 09:17:34;;;;;;;23.10;6.42;;;;;;;22.53;60.82;99314.36;1811889;79;22447;-80
2021/05/03 09:20:40;;;;;;;23.12;6.20;;;;;;;22.48;61.04;99311.02;1811605;79;21181;-80
2021/05/03 09:24:17;;;;;;;18.77;6.03;;;;;;;22.37;60.97;99303.78;1811521;79;21283;-80
2021/05/03 09:27:27;;;;;;;19.95;6.45;;;;;;;22.25;60.45;99311.56;1811496;79;21287;-80
2021/05/03 09:30:55;;;;;;;32.23;6.95;;;;;;;22.05;60.71;99301.20;1788251;79;22720;-80
2021/05/03 09:34:00;;;;;;;23.47;6.15;;;;;;;21.92;61.40;99294.22;1810206;79;21213;-80
2021/05/03 09:37:39;;;;;;;37.67;7.03;;;;;;;21.92;61.45;99289.52;1808254;79;21789;-80
2021/05/03 09:40:42;;;;;;;15.68;5.30;;;;;;;22.02;61.89;99292.87;1811411;79;21275;-80
2021/05/03 09:43:49;;;;;;;15.72;5.83;;;;;;;22.22;61.51;99285.68;1810175;79;21133;-80
2021/05/03 09:46:58;;;;;;;23.95;6.08;;;;;;;22.43;61.55;99281.77;1811484;79;21287;-80
2021/05/03 09:50:03;;;;;;;25.15;5.95;;;;;;;22.68;61.68;99277.58;1810110;79;21375;-80
2021/05/03 09:53:20;;;;;;;18.98;5.00;;;;;;;22.92;59.84;99286.77;1810342;79;21863;-80
2021/05/03 09:56:26;;;;;;;20.70;5.87;;;;;;;23.20;59.16;99290.31;1811416;79;21922;-80
2021/05/03 10:00:01;;;;;;;25.32;6.35;;;;;;;23.49;58.73;99296.62;1811390;79;21291;-80
2021/05/03 10:03:06;;;;;;;15.70;5.70;;;;;;;23.67;58.88;99305.78;1810817;79;21184;-80
2021/05/03 10:06:14;;;;;;;17.95;4.97;;;;;;;23.85;58.11;99314.59;1810002;79;22555;-80
2021/05/03 10:09:20;;;;;;;15.08;4.95;;;;;;;23.98;58.00;99312.58;1811531;79;21287;-80
2021/05/03 10:12:26;;;;;;;18.60;5.47;;;;;;;24.13;56.87;99305.48;1809928;79;21837;-80
2021/05/03 10:15:32;;;;;;;17.40;6.10;;;;;;;24.31;56.98;99304.53;1811517;79;21228;-80
2021/05/03 10:18:39;;;;;;;24.63;5.65;;;;;;;24.31;56.42;99303.13;1811498;79;21731;-80
2021/05/03 10:21:44;;;;;;;17.05;5.20;;;;;;;24.23;56.04;99304.61;1811561;79;21173;-80
2021/05/03 10:24:51;;;;;;;15.08;6.05;;;;;;;24.27;56.58;99302.04;1811479;79;21334;-80
2021/05/03 10:27:57;;;;;;;23.42;5.65;;;;;;;24.25;57.23;99292.56;1811471;79;21271;-80
2021/05/03 10:31:05;;;;;;;18.82;5.70;;;;;;;24.18;57.46;99304.08;1787529;79;21224;-80
2021/05/03 10:34:11;;;;;;;14.98;5.42;;;;;;;24.11;57.22;99295.17;1810175;79;21376;-80
2021/05/03 10:37:40;;;;;;;26.42;6.15;;;;;;;24.08;57.24;99299.94;1804327;79;21224;-80
2021/05/03 10:40:49;;;;;;;19.27;5.20;;;;;;;24.13;57.64;99307.45;1803211;79;21164;-80
2021/05/03 10:43:55;;;;;;;;;;;;;;;24.19;57.33;99304.34;1804663;79;21161;-80
2021/05/03 10:47:10;;;;;;;20.55;5.37;;;;;;;24.30;56.92;99308.45;1802959;79;20725;-80
2021/05/03 10:50:09;;;;;;;15.65;4.85;;;;;;;24.25;54.73;99310.72;1801521;79;21243;-80
2021/05/03 10:53:43;;;;;;;14.73;5.55;;;;;;;24.09;54.21;99307.75;1801603;79;21343;-80
2021/05/03 10:56:48;;;;;;;14.58;5.22;;;;;;;23.88;54.53;99300.91;1802930;79;21807;-80
2021/05/03 10:59:56;;;;;;;16.75;5.28;;;;;;;23.61;55.22;99297.10;1801473;79;21177;-80
2021/05/03 11:03:01;;;;;;;22.60;4.97;;;;;;;23.46;56.39;99315.32;1802822;79;21712;-80
2021/05/03 11:06:06;;;;;;;15.98;4.40;;;;;;;23.46;56.24;99303.59;1802047;79;21229;-80
2021/05/03 11:09:42;;;;;;;15.40;4.47;;;;;;;23.46;55.90;99299.97;1803507;79;21795;-80
2021/05/03 11:12:45;;;;;;;17.30;4.45;;;;;;;23.28;56.16;99305.61;1802847;79;21287;-80
2021/05/03 11:15:52;;;;;;;19.85;5.37;;;;;;;22.91;57.42;99303.20;1802662;79;21834;-80
2021/05/03 11:18:58;;;;;;;22.25;4.72;;;;;;;22.56;58.89;99302.66;1801976;79;21287;-80
2021/05/03 11:22:04;;;;;;;21.30;4.75;;;;;;;22.38;59.43;99317.42;1801258;79;21820;-80
2021/05/03 11:25:09;;;;;;;21.57;5.42;;;;;;;22.25;59.86;99322.70;1784434;79;21863;-80
2021/05/03 11:28:20;;;;;;;17.23;6.05;;;;;;;22.09;60.44;99325.44;1801471;79;22442;-80
2021/05/03 11:31:26;;;;;;;16.27;5.22;;;;;;;21.95;60.86;99335.44;1801395;79;21763;-79
2021/05/03 11:34:40;;;;;;;19.30;5.12;;;;;;;21.78;61.64;99333.43;1797810;79;21311;-79
2021/05/03 11:38:18;;;;;;;20.52;5.83;;;;;;;21.60;62.94;99338.39;1769824;80;21311;-80
2021/05/03 11:44:52;;;;;;;25.15;6.47;;;;;;;21.27;65.43;99330.42;1791067;79;21288;-79
2021/05/03 11:47:57;;;;;;;33.13;6.45;;;;;;;21.14;66.56;99342.30;1786283;79;21284;-79
2021/05/03 11:51:19;;;;;;;28.47;7.05;;;;;;;21.02;68.04;99340.27;1767617;79;21192;-80
2021/05/03 11:54:34;;;;;;;17.48;5.80;;;;;;;20.85;68.84;99342.40;1792196;79;21251;-80
2021/05/03 11:57:47;;;;;;;13.32;5.33;;;;;;;20.71;69.57;99335.63;1791090;79;21334;-80
2021/05/03 12:00:55;;;;;;;22.75;4.95;;;;;;;20.60;70.13;99336.08;1770575;81;21838;-79
2021/05/03 12:04:02;;;;;;;19.95;5.22;;;;;;;20.50;69.95;99331.27;1769037;81;21850;-79
2021/05/03 12:07:09;;;;;;;18.85;5.47;;;;;;;20.31;70.18;99323.02;1771409;81;21339;-79
2021/05/03 12:10:21;;;;;;;22.87;5.67;;;;;;;20.14;70.73;99317.61;1771560;81;21227;-79
2021/05/03 12:13:27;;;;;;;22.27;5.72;;;;;;;20.00;71.59;99312.20;1770489;81;21197;-79
2021/05/03 12:16:44;;;;;;;22.52;6.85;;;;;;;19.88;72.50;99304.84;1770532;81;21197;-79
2021/05/03 12:19:50;;;;;;;26.05;6.65;;;;;;;19.80;73.38;99293.38;1770364;81;21307;-79
2021/05/03 12:23:15;;;;;;;20.15;5.95;;;;;;;19.71;74.20;99283.84;1769742;81;21339;-79
2021/05/03 12:26:19;;;;;;;22.75;6.85;;;;;;;19.59;75.11;99248.75;1771401;81;21311;-79
2021/05/03 12:29:24;;;;;;;19.67;7.75;;;;;;;19.46;76.51;99228.36;1771208;81;21181;-79
2021/05/03 12:32:29;;;;;;;26.77;6.83;;;;;;;19.33;77.57;99231.53;1771285;81;21185;-79
2021/05/03 12:35:36;;;;;;;28.20;7.70;;;;;;;19.27;78.08;99217.33;1769817;81;21319;-79
2021/05/03 12:38:42;;;;;;;24.55;7.50;;;;;;;19.25;78.36;99200.97;1754177;80;21877;-79
2021/05/03 12:41:49;;;;;;;24.12;7.42;;;;;;;19.28;78.91;99196.27;1778091;80;21291;-79
2021/05/03 12:44:59;;;;;;;26.23;8.13;;;;;;;19.34;79.53;99193.03;1779126;80;21311;-79
2021/05/03 12:48:14;;;;;;;30.32;7.30;;;;;;;19.40;80.89;99187.81;1778984;80;21743;-79
2021/05/03 12:51:33;;;;;;;23.52;8.15;;;;;;;19.47;81.41;99195.36;1778609;80;21315;-79
2021/05/03 12:54:35;;;;;;;23.70;7.85;;;;;;;19.51;81.63;99201.23;1778789;80;21351;-79
2021/05/03 12:58:08;;;;;;;20.02;7.87;;;;;;;19.55;81.33;99207.38;1777618;80;21735;-79
2021/05/03 13:01:25;;;;;;;24.12;7.75;;;;;;;19.60;81.20;99221.88;1779557;80;21366;-79
2021/05/03 13:05:10;;;;;;;32.78;7.62;;;;;;;19.65;81.25;99226.92;1778013;80;21294;-79
2021/05/03 13:28:33;;;;;;;21.57;7.17;;;;;;;21.05;78.29;99246.61;1740640;82;21307;-79
2021/05/03 13:31:39;;;;;;;15.50;5.78;;;;;;;21.16;77.09;99246.09;1745214;81;21183;-79
2021/05/03 13:34:44;;;;;;;11.57;4.33;;;;;;;21.24;75.95;99263.66;1751559;81;22589;-79
2021/05/03 13:37:50;;;;;;;11.00;3.92;;;;;;;21.07;66.18;99272.74;1765390;81;21339;-79
2021/05/03 13:40:57;;;;;;;9.98;4.05;;;;;;;20.89;66.28;99280.45;1749844;81;21201;-79
2021/05/03 13:44:02;;;;;;;22.32;4.17;;;;;;;20.72;67.26;99283.95;1717385;82;21212;-79
2021/05/03 13:47:09;;;;;;;18.05;5.37;;;;;;;20.56;67.75;99296.03;1757994;81;21209;-79
2021/05/03 13:50:18;;;;;;;21.82;7.60;;;;;;;20.40;67.98;99311.17;1755505;81;21268;-79
2021/05/03 13:53:44;;;;;;;30.05;9.35;;;;;;;20.26;68.53;99307.70;1802172;79;21164;-79
2021/05/03 13:56:49;;;;;;;29.05;8.58;;;;;;;20.19;68.81;99300.16;1780569;79;21495;-79
2021/05/03 13:59:55;;;;;;;18.27;7.97;;;;;;;20.19;68.82;99298.22;1734219;82;21308;-79
2021/05/03 14:03:05;;;;;;;26.48;9.13;;;;;;;20.20;68.93;99292.12;1770604;81;21229;-79
2021/05/03 14:06:17;;;;;;;22.58;8.40;;;;;;;20.15;67.88;99290.13;1733275;82;21295;-79
2021/05/03 14:09:25;;;;;;;19.48;7.47;;;;;;;20.07;66.52;99285.88;1770671;81;21378;-79
2021/05/03 14:12:31;;;;;;;15.28;7.10;;;;;;;19.97;66.17;99284.95;1734338;82;21138;-79
2021/05/03 14:15:38;;;;;;;17.70;7.05;;;;;;;19.87;66.18;99280.98;1770040;81;21323;-79
2021/05/03 14:18:44;;;;;;;16.57;7.00;;;;;;;19.80;66.17;99286.44;1777054;79;21276;-79
2021/05/03 14:21:50;;;;;;;16.65;7.50;;;;;;;19.76;66.77;99292.22;1778005;79;21351;-79
2021/05/03 14:24:56;;;;;;;17.12;7.08;;;;;;;19.72;67.15;99295.25;1769557;81;21394;-79
2021/05/03 14:28:06;;;;;;;19.02;8.13;;;;;;;19.66;66.62;99294.33;1783382;79;21228;-78
2021/05/03 14:31:14;;;;;;;14.63;7.95;;;;;;;19.57;65.84;99291.17;1769341;81;21352;-79
2021/05/03 14:34:33;;;;;;;16.02;8.58;;;;;;;19.48;66.59;99292.73;1777633;79;21164;-79
2021/05/03 14:37:38;;;;;;;18.50;8.30;;;;;;;19.40;67.13;99300.95;1769690;81;21253;-79
2021/05/03 14:40:44;;;;;;;22.27;9.25;;;;;;;19.32;67.65;99292.24;1771249;79;21328;-79
2021/05/03 14:43:50;;;;;;;17.42;9.98;;;;;;;19.23;68.31;99291.84;1770715;81;21300;-79
2021/05/03 14:47:08;;;;;;;21.65;10.05;;;;;;;19.13;68.92;99282.85;1769588;81;21193;-79
2021/05/03 14:50:18;;;;;;;21.00;11.05;;;;;;;19.03;69.73;99288.81;1770889;81;21304;-79
2021/05/03 14:56:39;;;;;;;25.27;12.35;;;;;;;18.87;70.49;99289.16;1712212;83;21358;-79
2021/05/03 14:59:45;;;;;;;21.70;12.07;;;;;;;18.79;71.18;99289.04;1769193;81;21315;-78
2021/05/03 15:02:51;;;;;;;21.10;9.68;;;;;;;18.71;71.43;99270.63;1770229;79;21292;-79
2021/05/03 15:06:00;;;;;;;19.70;10.48;;;;;;;18.60;70.15;99280.14;1769013;81;21895;-79
2021/05/03 15:09:11;;;;;;;25.02;11.53;;;;;;;18.52;69.87;99288.87;1794938;79;21708;-79
2021/05/03 15:12:30;;;;;;;22.95;12.13;;;;;;;18.49;69.13;99292.16;1802782;79;21291;-79
2021/05/03 15:15:42;;;;;;;35.23;14.05;;;;;;;18.52;69.75;99299.11;1803150;79;21330;-79
2021/05/03 15:19:02;;;;;;;26.20;11.57;;;;;;;18.57;68.68;99304.17;1803002;79;21284;-79
2021/05/03 15:21:52;;;;;;;23.35;9.05;;;;;;;18.68;65.06;99305.71;1802950;79;21296;-79